Hauptseite
METAR-TAF:

METAR-TAF

Flughäfen :

Flughafen Frankfurt am Main

Frankfurt am Main, Deutschland

Breite: 50-03N, Länge: 008-36E, Höhe: 111 m

Beobachtung

Neuester Wetterbericht von vor 28 Minuten, um 03:50 UTC
Wind 4 kt aus Ost
Temperatur 5°C
Luftfeuchtigkeit 93%
Luftdruck 1027 hPa
Sichtweite 10 km oder mehr
keine Wolken unter 1500 m und keine Kumulonimbus oder Gewitterwolken

METAR: EDDF 220350Z 08004KT CAVOK 05/04 Q1027 NOSIG

Zeit: 06:18 (04:18 UTC)

Prognose

Neuester Wetterbericht von vor 5 Stunden und 18 Minuten, um 23:00 UTC
Gültige Prognose vom 22 um 00 UTC bis 23 um 06 UTC
Wind 3 kt aus Nordost
Sichtweite 10 km oder mehr
keine Wolken unter 1500 m und keine Kumulonimbus oder Gewitterwolken
Übergehend zu
vom 22 um 09 UTC bis 22 um 12 UTC
Wind 8 kt aus Nord/Nordost
Durchbrochene Bewölkung in der Höhe von 3000 ft

TAF: EDDF 212300Z 2200/2306 05003KT CAVOK BECMG 2209/2212 03008KT BKN030

Wetterbeobachtungen und Prognosen von mehr als 4000 Flughäfen (METAR und TAF Bericht).

Die verfügbaren Stationen werden durch gelbe und rote Markierungen auf der Karte dargestellt.

Führen Sie die Maus auf sie, um den Namen der Station zu sehen.

Darauf klicken, um die Beobachtung von Wetterbeobachtungen und Prognosen zu sehen.

Um die Karte zu ändern : klicken Sie auf den grünen Tasten mit einem schwarzen Kreuz Zum Vergrößern, auf den grünen Button mit einem Gedankenstrich zu verkleinern, oder auf die grünen Pfeile für benachbarte Karten.


METAR-TAF: